sensor_id;sensor_type;location;lat;lon;timestamp;temperature;humidity
18868;DHT22;9563;49.240;9.088;2023-07-09T04:00:29;19.60;99.90
18868;DHT22;9563;49.240;9.088;2023-07-09T04:02:56;19.60;99.90
18868;DHT22;9563;49.240;9.088;2023-07-09T04:05:23;19.70;99.90
18868;DHT22;9563;49.240;9.088;2023-07-09T04:07:50;19.70;99.90
18868;DHT22;9563;49.240;9.088;2023-07-09T04:10:17;19.70;99.90
18868;DHT22;9563;49.240;9.088;2023-07-09T04:12:44;19.70;99.90
18868;DHT22;9563;49.240;9.088;2023-07-09T04:15:12;19.70;99.90
18868;DHT22;9563;49.240;9.088;2023-07-09T04:17:41;19.70;99.90
18868;DHT22;9563;49.240;9.088;2023-07-09T04:20:08;19.60;99.90
18868;DHT22;9563;49.240;9.088;2023-07-09T04:22:35;19.60;99.90
18868;DHT22;9563;49.240;9.088;2023-07-09T04:25:04;19.50;99.90
18868;DHT22;9563;49.240;9.088;2023-07-09T04:27:32;19.60;99.90
18868;DHT22;9563;49.240;9.088;2023-07-09T04:29:59;19.60;99.90
18868;DHT22;9563;49.240;9.088;2023-07-09T04:32:26;19.60;99.90
18868;DHT22;9563;49.240;9.088;2023-07-09T04:34:54;19.50;99.90
18868;DHT22;9563;49.240;9.088;2023-07-09T04:37:21;19.50;99.90
18868;DHT22;9563;49.240;9.088;2023-07-09T04:39:48;19.50;99.90
18868;DHT22;9563;49.240;9.088;2023-07-09T04:42:16;19.60;99.90
18868;DHT22;9563;49.240;9.088;2023-07-09T04:44:44;19.60;99.90
18868;DHT22;9563;49.240;9.088;2023-07-09T04:47:12;19.70;99.90
18868;DHT22;9563;49.240;9.088;2023-07-09T04:49:39;19.80;99.90
18868;DHT22;9563;49.240;9.088;2023-07-09T04:52:08;19.90;99.90
18868;DHT22;9563;49.240;9.088;2023-07-09T04:54:39;19.90;99.90
18868;DHT22;9563;49.240;9.088;2023-07-09T04:57:06;20.00;99.90
18868;DHT22;9563;49.240;9.088;2023-07-09T04:59:33;19.90;99.90
18868;DHT22;9563;49.240;9.088;2023-07-09T05:02:00;19.90;99.90
18868;DHT22;9563;49.240;9.088;2023-07-09T05:04:26;20.00;99.90
18868;DHT22;9563;49.240;9.088;2023-07-09T05:06:53;20.10;99.90
18868;DHT22;9563;49.240;9.088;2023-07-09T05:09:21;20.10;99.90
18868;DHT22;9563;49.240;9.088;2023-07-09T05:11:49;20.10;99.90
18868;DHT22;9563;49.240;9.088;2023-07-09T05:14:19;20.20;99.90
18868;DHT22;9563;49.240;9.088;2023-07-09T05:16:46;20.30;99.90
18868;DHT22;9563;49.240;9.088;2023-07-09T05:19:12;20.40;99.90
18868;DHT22;9563;49.240;9.088;2023-07-09T05:21:40;20.40;99.90
18868;DHT22;9563;49.240;9.088;2023-07-09T05:24:07;20.50;99.90
18868;DHT22;9563;49.240;9.088;2023-07-09T05:26:36;20.50;99.90
18868;DHT22;9563;49.240;9.088;2023-07-09T05:29:03;20.50;99.90
18868;DHT22;9563;49.240;9.088;2023-07-09T05:31:31;20.60;99.90
18868;DHT22;9563;49.240;9.088;2023-07-09T05:33:58;20.70;99.90
18868;DHT22;9563;49.240;9.088;2023-07-09T05:36:26;20.70;99.90
18868;DHT22;9563;49.240;9.088;2023-07-09T05:38:54;20.70;99.90
18868;DHT22;9563;49.240;9.088;2023-07-09T05:41:22;20.80;99.90
18868;DHT22;9563;49.240;9.088;2023-07-09T05:43:51;20.80;99.90
18868;DHT22;9563;49.240;9.088;2023-07-09T05:46:18;20.90;99.90
18868;DHT22;9563;49.240;9.088;2023-07-09T05:48:46;21.00;99.90
18868;DHT22;9563;49.240;9.088;2023-07-09T05:51:13;21.10;99.90
18868;DHT22;9563;49.240;9.088;2023-07-09T05:53:40;21.20;99.90
18868;DHT22;9563;49.240;9.088;2023-07-09T05:56:07;21.30;99.90
18868;DHT22;9563;49.240;9.088;2023-07-09T05:58:34;21.40;99.90
18868;DHT22;9563;49.240;9.088;2023-07-09T06:01:03;21.50;99.90
18868;DHT22;9563;49.240;9.088;2023-07-09T06:03:30;21.60;99.90
18868;DHT22;9563;49.240;9.088;2023-07-09T06:05:57;21.70;99.90
18868;DHT22;9563;49.240;9.088;2023-07-09T06:08:25;21.80;99.90
18868;DHT22;9563;49.240;9.088;2023-07-09T06:10:54;21.90;99.90
18868;DHT22;9563;49.240;9.088;2023-07-09T06:13:21;22.00;99.90
18868;DHT22;9563;49.240;9.088;2023-07-09T06:15:48;22.10;99.90
18868;DHT22;9563;49.240;9.088;2023-07-09T06:18:30;22.30;99.90
18868;DHT22;9563;49.240;9.088;2023-07-09T06:20:58;22.40;99.90
18868;DHT22;9563;49.240;9.088;2023-07-09T06:23:26;22.50;99.90
18868;DHT22;9563;49.240;9.088;2023-07-09T06:25:53;22.70;99.90
18868;DHT22;9563;49.240;9.088;2023-07-09T06:28:21;22.70;99.90
18868;DHT22;9563;49.240;9.088;2023-07-09T06:30:48;22.80;99.90
18868;DHT22;9563;49.240;9.088;2023-07-09T06:33:17;22.80;99.90
18868;DHT22;9563;49.240;9.088;2023-07-09T06:35:59;22.90;99.90
18868;DHT22;9563;49.240;9.088;2023-07-09T06:38:27;23.00;99.90
18868;DHT22;9563;49.240;9.088;2023-07-09T06:40:55;23.10;99.90
18868;DHT22;9563;49.240;9.088;2023-07-09T06:43:22;23.20;99.90
18868;DHT22;9563;49.240;9.088;2023-07-09T06:45:52;23.30;99.90
18868;DHT22;9563;49.240;9.088;2023-07-09T06:48:19;23.40;99.90
18868;DHT22;9563;49.240;9.088;2023-07-09T06:50:46;23.40;99.90
18868;DHT22;9563;49.240;9.088;2023-07-09T06:53:15;23.50;99.90
18868;DHT22;9563;49.240;9.088;2023-07-09T06:55:42;23.60;99.90
18868;DHT22;9563;49.240;9.088;2023-07-09T06:58:09;23.60;99.90
18868;DHT22;9563;49.240;9.088;2023-07-09T07:00:36;23.70;99.90
18868;DHT22;9563;49.240;9.088;2023-07-09T07:03:04;23.60;99.90
18868;DHT22;9563;49.240;9.088;2023-07-09T07:05:32;23.70;99.90
18868;DHT22;9563;49.240;9.088;2023-07-09T07:07:59;23.90;99.90
18868;DHT22;9563;49.240;9.088;2023-07-09T07:10:27;24.00;99.90
18868;DHT22;9563;49.240;9.088;2023-07-09T07:12:55;24.10;99.90
18868;DHT22;9563;49.240;9.088;2023-07-09T07:15:22;24.20;99.90
18868;DHT22;9563;49.240;9.088;2023-07-09T07:17:49;24.30;99.90
18868;DHT22;9563;49.240;9.088;2023-07-09T07:20:17;24.50;99.90
18868;DHT22;9563;49.240;9.088;2023-07-09T07:22:44;24.60;99.90
18868;DHT22;9563;49.240;9.088;2023-07-09T07:25:11;24.80;99.90
18868;DHT22;9563;49.240;9.088;2023-07-09T07:27:39;24.90;99.90
18868;DHT22;9563;49.240;9.088;2023-07-09T07:30:07;25.10;99.90
18868;DHT22;9563;49.240;9.088;2023-07-09T07:32:36;25.30;99.90
18868;DHT22;9563;49.240;9.088;2023-07-09T07:35:04;25.50;99.90
18868;DHT22;9563;49.240;9.088;2023-07-09T07:37:31;25.70;99.90
18868;DHT22;9563;49.240;9.088;2023-07-09T07:39:58;25.90;99.90
18868;DHT22;9563;49.240;9.088;2023-07-09T07:42:25;26.20;99.90
18868;DHT22;9563;49.240;9.088;2023-07-09T07:44:54;26.40;99.90
18868;DHT22;9563;49.240;9.088;2023-07-09T07:47:21;26.60;99.90
18868;DHT22;9563;49.240;9.088;2023-07-09T07:49:47;26.70;99.90
18868;DHT22;9563;49.240;9.088;2023-07-09T07:52:17;26.90;99.90
18868;DHT22;9563;49.240;9.088;2023-07-09T07:54:44;27.00;99.90
18868;DHT22;9563;49.240;9.088;2023-07-09T07:57:11;27.20;99.90
18868;DHT22;9563;49.240;9.088;2023-07-09T07:59:39;27.30;99.90
18868;DHT22;9563;49.240;9.088;2023-07-09T08:02:12;27.40;99.90
18868;DHT22;9563;49.240;9.088;2023-07-09T08:04:40;27.60;99.90
18868;DHT22;9563;49.240;9.088;2023-07-09T08:07:08;27.80;99.90
18868;DHT22;9563;49.240;9.088;2023-07-09T08:09:35;28.00;99.90
18868;DHT22;9563;49.240;9.088;2023-07-09T08:12:02;28.20;99.90
18868;DHT22;9563;49.240;9.088;2023-07-09T08:14:35;28.30;99.90
18868;DHT22;9563;49.240;9.088;2023-07-09T08:17:02;28.60;99.90
18868;DHT22;9563;49.240;9.088;2023-07-09T08:19:31;28.80;99.90
18868;DHT22;9563;49.240;9.088;2023-07-09T08:21:58;28.90;99.90
18868;DHT22;9563;49.240;9.088;2023-07-09T08:24:25;29.10;99.90
18868;DHT22;9563;49.240;9.088;2023-07-09T08:26:52;29.40;99.90
18868;DHT22;9563;49.240;9.088;2023-07-09T08:29:18;29.60;99.90
18868;DHT22;9563;49.240;9.088;2023-07-09T08:31:45;29.70;99.90
18868;DHT22;9563;49.240;9.088;2023-07-09T08:34:14;29.80;99.90
18868;DHT22;9563;49.240;9.088;2023-07-09T08:36:42;30.00;99.90
18868;DHT22;9563;49.240;9.088;2023-07-09T08:39:10;30.20;99.90
18868;DHT22;9563;49.240;9.088;2023-07-09T08:41:41;30.30;99.90
18868;DHT22;9563;49.240;9.088;2023-07-09T08:47:26;30.70;99.90
18868;DHT22;9563;49.240;9.088;2023-07-09T08:49:59;30.80;99.90
18868;DHT22;9563;49.240;9.088;2023-07-09T08:52:32;30.90;99.40
18868;DHT22;9563;49.240;9.088;2023-07-09T08:55:03;31.00;99.60
18868;DHT22;9563;49.240;9.088;2023-07-09T08:57:34;31.10;99.90
18868;DHT22;9563;49.240;9.088;2023-07-09T09:00:07;31.30;99.50
18868;DHT22;9563;49.240;9.088;2023-07-09T09:02:46;31.40;99.30
18868;DHT22;9563;49.240;9.088;2023-07-09T09:05:19;31.40;97.20
18868;DHT22;9563;49.240;9.088;2023-07-09T09:07:50;31.60;96.60
18868;DHT22;9563;49.240;9.088;2023-07-09T09:10:23;31.70;96.00
18868;DHT22;9563;49.240;9.088;2023-07-09T09:13:02;31.90;95.70
18868;DHT22;9563;49.240;9.088;2023-07-09T09:15:31;32.10;95.70
18868;DHT22;9563;49.240;9.088;2023-07-09T09:18:14;32.20;95.40
18868;DHT22;9563;49.240;9.088;2023-07-09T09:20:46;32.30;93.60
18868;DHT22;9563;49.240;9.088;2023-07-09T09:23:15;32.30;92.50
18868;DHT22;9563;49.240;9.088;2023-07-09T09:25:45;32.40;92.10
18868;DHT22;9563;49.240;9.088;2023-07-09T09:28:13;32.50;92.00
18868;DHT22;9563;49.240;9.088;2023-07-09T09:30:40;32.70;92.50
18868;DHT22;9563;49.240;9.088;2023-07-09T09:33:09;32.80;89.50
18868;DHT22;9563;49.240;9.088;2023-07-09T09:35:39;33.00;91.20
18868;DHT22;9563;49.240;9.088;2023-07-09T09:38:11;33.00;90.20
18868;DHT22;9563;49.240;9.088;2023-07-09T09:40:39;33.20;79.30
18868;DHT22;9563;49.240;9.088;2023-07-09T09:43:12;33.30;76.60
18868;DHT22;9563;49.240;9.088;2023-07-09T09:45:40;33.50;78.00
18868;DHT22;9563;49.240;9.088;2023-07-09T09:48:13;33.60;78.60
18868;DHT22;9563;49.240;9.088;2023-07-09T09:50:41;33.70;79.90
18868;DHT22;9563;49.240;9.088;2023-07-09T09:53:08;33.80;80.90
18868;DHT22;9563;49.240;9.088;2023-07-09T09:55:39;33.70;74.60
18868;DHT22;9563;49.240;9.088;2023-07-09T09:58:12;33.60;73.50
18868;DHT22;9563;49.240;9.088;2023-07-09T10:00:40;33.60;73.10
18868;DHT22;9563;49.240;9.088;2023-07-09T10:03:07;33.70;76.60
18868;DHT22;9563;49.240;9.088;2023-07-09T10:05:38;33.90;73.40
18868;DHT22;9563;49.240;9.088;2023-07-09T10:08:13;33.90;74.60
18868;DHT22;9563;49.240;9.088;2023-07-09T10:10:44;34.00;71.30
18868;DHT22;9563;49.240;9.088;2023-07-09T10:13:18;34.00;70.80
18868;DHT22;9563;49.240;9.088;2023-07-09T10:16:01;33.70;71.00
18868;DHT22;9563;49.240;9.088;2023-07-09T10:18:39;33.90;73.40
18868;DHT22;9563;49.240;9.088;2023-07-09T10:21:13;34.20;74.40
18868;DHT22;9563;49.240;9.088;2023-07-09T10:23:48;34.30;72.10
18868;DHT22;9563;49.240;9.088;2023-07-09T10:26:24;34.60;72.10
18868;DHT22;9563;49.240;9.088;2023-07-09T10:29:24;34.70;71.30
18868;DHT22;9563;49.240;9.088;2023-07-09T10:31:58;34.70;66.60
18868;DHT22;9563;49.240;9.088;2023-07-09T10:34:34;34.70;69.30
18868;DHT22;9563;49.240;9.088;2023-07-09T10:37:32;34.70;68.60
18868;DHT22;9563;49.240;9.088;2023-07-09T10:40:04;34.90;69.20
18868;DHT22;9563;49.240;9.088;2023-07-09T10:42:39;35.00;66.20
18868;DHT22;9563;49.240;9.088;2023-07-09T10:45:10;34.70;63.30
18868;DHT22;9563;49.240;9.088;2023-07-09T10:47:42;34.70;63.90
18868;DHT22;9563;49.240;9.088;2023-07-09T10:50:17;34.80;67.20
18868;DHT22;9563;49.240;9.088;2023-07-09T10:52:47;34.80;64.90
18868;DHT22;9563;49.240;9.088;2023-07-09T10:55:21;34.80;63.00
18868;DHT22;9563;49.240;9.088;2023-07-09T10:57:57;34.90;63.60
18868;DHT22;9563;49.240;9.088;2023-07-09T11:00:33;34.70;60.50
18868;DHT22;9563;49.240;9.088;2023-07-09T11:03:04;34.30;60.80
18868;DHT22;9563;49.240;9.088;2023-07-09T11:05:32;34.30;62.60
18868;DHT22;9563;49.240;9.088;2023-07-09T11:08:04;34.40;63.80
18868;DHT22;9563;49.240;9.088;2023-07-09T11:10:34;34.60;63.50
18868;DHT22;9563;49.240;9.088;2023-07-09T11:13:07;34.70;64.10
18868;DHT22;9563;49.240;9.088;2023-07-09T11:15:39;34.90;64.10
18868;DHT22;9563;49.240;9.088;2023-07-09T11:18:12;35.00;62.00
18868;DHT22;9563;49.240;9.088;2023-07-09T11:20:43;35.30;62.60
18868;DHT22;9563;49.240;9.088;2023-07-09T11:23:18;35.50;61.00
18868;DHT22;9563;49.240;9.088;2023-07-09T11:25:46;35.70;59.20
18868;DHT22;9563;49.240;9.088;2023-07-09T11:28:15;35.80;61.10
18868;DHT22;9563;49.240;9.088;2023-07-09T11:30:47;35.80;57.90
18868;DHT22;9563;49.240;9.088;2023-07-09T11:33:20;35.60;57.40
18868;DHT22;9563;49.240;9.088;2023-07-09T11:35:48;35.50;57.60
18868;DHT22;9563;49.240;9.088;2023-07-09T11:38:18;35.50;58.30
18868;DHT22;9563;49.240;9.088;2023-07-09T11:40:47;35.50;57.70
18868;DHT22;9563;49.240;9.088;2023-07-09T11:43:29;35.60;59.20
18868;DHT22;9563;49.240;9.088;2023-07-09T11:46:06;35.60;56.40
18868;DHT22;9563;49.240;9.088;2023-07-09T11:48:34;35.40;55.20
18868;DHT22;9563;49.240;9.088;2023-07-09T11:51:07;35.40;54.80
18868;DHT22;9563;49.240;9.088;2023-07-09T11:53:40;35.40;53.80
18868;DHT22;9563;49.240;9.088;2023-07-09T11:56:08;35.40;53.80
18868;DHT22;9563;49.240;9.088;2023-07-09T11:58:47;35.50;54.20
18868;DHT22;9563;49.240;9.088;2023-07-09T12:01:18;35.70;55.70
18868;DHT22;9563;49.240;9.088;2023-07-09T12:03:46;35.90;57.00
18868;DHT22;9563;49.240;9.088;2023-07-09T12:06:18;35.90;56.50
18868;DHT22;9563;49.240;9.088;2023-07-09T12:08:46;35.70;54.50
18868;DHT22;9563;49.240;9.088;2023-07-09T12:11:21;35.90;56.90
18868;DHT22;9563;49.240;9.088;2023-07-09T12:13:50;35.90;56.30
18868;DHT22;9563;49.240;9.088;2023-07-09T12:16:22;35.80;55.20
18868;DHT22;9563;49.240;9.088;2023-07-09T12:18:49;35.60;55.60
18868;DHT22;9563;49.240;9.088;2023-07-09T12:21:16;35.80;61.70
18868;DHT22;9563;49.240;9.088;2023-07-09T12:23:43;36.00;58.30
18868;DHT22;9563;49.240;9.088;2023-07-09T12:26:12;36.00;56.20
18868;DHT22;9563;49.240;9.088;2023-07-09T12:28:40;36.00;58.80
18868;DHT22;9563;49.240;9.088;2023-07-09T12:31:13;36.10;56.60
18868;DHT22;9563;49.240;9.088;2023-07-09T12:33:47;36.20;55.50
18868;DHT22;9563;49.240;9.088;2023-07-09T12:36:16;35.90;53.70
18868;DHT22;9563;49.240;9.088;2023-07-09T12:38:46;35.90;53.80
18868;DHT22;9563;49.240;9.088;2023-07-09T12:41:19;35.90;54.60
18868;DHT22;9563;49.240;9.088;2023-07-09T12:43:47;35.90;54.30
18868;DHT22;9563;49.240;9.088;2023-07-09T12:46:16;35.90;54.40
18868;DHT22;9563;49.240;9.088;2023-07-09T12:48:45;35.90;54.30
18868;DHT22;9563;49.240;9.088;2023-07-09T12:51:15;35.70;52.80
18868;DHT22;9563;49.240;9.088;2023-07-09T12:53:42;35.90;55.40
18868;DHT22;9563;49.240;9.088;2023-07-09T12:56:12;35.90;54.00
18868;DHT22;9563;49.240;9.088;2023-07-09T12:58:39;35.90;52.50
18868;DHT22;9563;49.240;9.088;2023-07-09T13:01:11;36.00;55.30
18868;DHT22;9563;49.240;9.088;2023-07-09T13:03:42;35.90;53.40
18868;DHT22;9563;49.240;9.088;2023-07-09T13:06:28;35.80;54.40
18868;DHT22;9563;49.240;9.088;2023-07-09T13:08:57;35.80;52.90
18868;DHT22;9563;49.240;9.088;2023-07-09T13:11:25;35.80;52.30
18868;DHT22;9563;49.240;9.088;2023-07-09T13:13:59;35.80;52.80
18868;DHT22;9563;49.240;9.088;2023-07-09T13:16:26;35.80;51.30
18868;DHT22;9563;49.240;9.088;2023-07-09T13:18:55;35.80;52.00
18868;DHT22;9563;49.240;9.088;2023-07-09T13:21:23;35.80;52.30
18868;DHT22;9563;49.240;9.088;2023-07-09T13:23:52;35.70;52.10
18868;DHT22;9563;49.240;9.088;2023-07-09T13:26:19;35.80;51.90
18868;DHT22;9563;49.240;9.088;2023-07-09T13:28:46;35.90;52.30
18868;DHT22;9563;49.240;9.088;2023-07-09T13:31:17;36.00;53.20
18868;DHT22;9563;49.240;9.088;2023-07-09T13:33:44;36.10;52.80
18868;DHT22;9563;49.240;9.088;2023-07-09T13:36:15;36.10;51.50
18868;DHT22;9563;49.240;9.088;2023-07-09T13:38:44;36.00;50.20
18868;DHT22;9563;49.240;9.088;2023-07-09T13:41:13;35.90;51.00
18868;DHT22;9563;49.240;9.088;2023-07-09T13:43:43;36.00;50.80
18868;DHT22;9563;49.240;9.088;2023-07-09T13:46:10;36.00;50.90
18868;DHT22;9563;49.240;9.088;2023-07-09T13:48:39;36.10;51.60
18868;DHT22;9563;49.240;9.088;2023-07-09T13:51:16;36.30;52.60
18868;DHT22;9563;49.240;9.088;2023-07-09T13:53:43;36.30;48.90
18868;DHT22;9563;49.240;9.088;2023-07-09T13:56:13;36.30;49.40
18868;DHT22;9563;49.240;9.088;2023-07-09T13:58:41;36.30;49.30
18868;DHT22;9563;49.240;9.088;2023-07-09T14:01:11;36.10;50.10
18868;DHT22;9563;49.240;9.088;2023-07-09T14:03:39;36.00;51.30
18868;DHT22;9563;49.240;9.088;2023-07-09T14:06:08;35.90;49.90
18868;DHT22;9563;49.240;9.088;2023-07-09T14:08:37;35.90;49.00
18868;DHT22;9563;49.240;9.088;2023-07-09T14:11:09;35.80;49.60
18868;DHT22;9563;49.240;9.088;2023-07-09T14:13:37;35.90;49.40
18868;DHT22;9563;49.240;9.088;2023-07-09T14:16:04;36.00;49.30
18868;DHT22;9563;49.240;9.088;2023-07-09T14:18:31;36.10;51.90
18868;DHT22;9563;49.240;9.088;2023-07-09T14:20:58;36.10;49.60
18868;DHT22;9563;49.240;9.088;2023-07-09T14:23:25;35.90;48.40
18868;DHT22;9563;49.240;9.088;2023-07-09T14:25:53;35.60;49.40
18868;DHT22;9563;49.240;9.088;2023-07-09T14:28:20;35.40;48.80
18868;DHT22;9563;49.240;9.088;2023-07-09T14:30:49;35.20;49.00
18868;DHT22;9563;49.240;9.088;2023-07-09T14:33:18;35.10;49.10
18868;DHT22;9563;49.240;9.088;2023-07-09T14:35:46;35.00;48.70
18868;DHT22;9563;49.240;9.088;2023-07-09T14:38:21;34.80;48.40
18868;DHT22;9563;49.240;9.088;2023-07-09T14:40:50;34.80;48.90
18868;DHT22;9563;49.240;9.088;2023-07-09T14:43:19;34.70;48.60
18868;DHT22;9563;49.240;9.088;2023-07-09T14:45:47;34.60;47.60
18868;DHT22;9563;49.240;9.088;2023-07-09T14:48:16;34.60;47.00
18868;DHT22;9563;49.240;9.088;2023-07-09T14:50:44;34.40;47.70
18868;DHT22;9563;49.240;9.088;2023-07-09T14:53:14;34.30;48.10
18868;DHT22;9563;49.240;9.088;2023-07-09T14:55:41;34.20;48.90
18868;DHT22;9563;49.240;9.088;2023-07-09T14:58:14;34.20;49.40
18868;DHT22;9563;49.240;9.088;2023-07-09T15:00:44;34.10;50.20
18868;DHT22;9563;49.240;9.088;2023-07-09T15:03:21;34.20;49.70
18868;DHT22;9563;49.240;9.088;2023-07-09T15:05:48;34.20;49.70
18868;DHT22;9563;49.240;9.088;2023-07-09T15:08:18;34.30;49.60
18868;DHT22;9563;49.240;9.088;2023-07-09T15:10:45;34.50;49.30
18868;DHT22;9563;49.240;9.088;2023-07-09T15:13:17;34.60;48.60
18868;DHT22;9563;49.240;9.088;2023-07-09T15:15:46;34.70;49.40
18868;DHT22;9563;49.240;9.088;2023-07-09T15:18:15;34.60;49.60
18868;DHT22;9563;49.240;9.088;2023-07-09T15:20:48;34.70;49.30
18868;DHT22;9563;49.240;9.088;2023-07-09T15:23:16;34.60;48.10
18868;DHT22;9563;49.240;9.088;2023-07-09T15:25:43;34.60;47.10
18868;DHT22;9563;49.240;9.088;2023-07-09T15:28:10;34.40;47.70
18868;DHT22;9563;49.240;9.088;2023-07-09T15:30:37;34.30;48.00
18868;DHT22;9563;49.240;9.088;2023-07-09T15:33:13;34.30;48.80
18868;DHT22;9563;49.240;9.088;2023-07-09T15:35:41;34.30;48.80
18868;DHT22;9563;49.240;9.088;2023-07-09T15:38:30;34.20;47.90
18868;DHT22;9563;49.240;9.088;2023-07-09T15:40:59;34.30;48.40
18868;DHT22;9563;49.240;9.088;2023-07-09T15:43:26;34.40;48.00
18868;DHT22;9563;49.240;9.088;2023-07-09T15:45:56;34.40;49.40
18868;DHT22;9563;49.240;9.088;2023-07-09T15:48:27;34.40;50.60
18868;DHT22;9563;49.240;9.088;2023-07-09T15:50:54;34.30;50.70
18868;DHT22;9563;49.240;9.088;2023-07-09T15:53:21;34.30;50.00
18868;DHT22;9563;49.240;9.088;2023-07-09T15:55:48;34.20;50.50
18868;DHT22;9563;49.240;9.088;2023-07-09T15:58:19;34.10;50.70
18868;DHT22;9563;49.240;9.088;2023-07-09T16:00:49;34.10;51.20
18868;DHT22;9563;49.240;9.088;2023-07-09T16:03:18;33.90;49.60
18868;DHT22;9563;49.240;9.088;2023-07-09T16:05:47;33.90;50.20
18868;DHT22;9563;49.240;9.088;2023-07-09T16:08:13;33.80;50.20
18868;DHT22;9563;49.240;9.088;2023-07-09T16:10:41;33.70;49.60
18868;DHT22;9563;49.240;9.088;2023-07-09T16:13:17;33.70;49.90
18868;DHT22;9563;49.240;9.088;2023-07-09T16:15:44;33.70;49.20
18868;DHT22;9563;49.240;9.088;2023-07-09T16:18:11;33.70;49.30
18868;DHT22;9563;49.240;9.088;2023-07-09T16:20:38;33.80;49.40
18868;DHT22;9563;49.240;9.088;2023-07-09T16:23:15;33.90;49.50
18868;DHT22;9563;49.240;9.088;2023-07-09T16:25:43;34.00;51.40
18868;DHT22;9563;49.240;9.088;2023-07-09T16:28:13;33.90;51.60
18868;DHT22;9563;49.240;9.088;2023-07-09T16:30:40;33.90;50.80
18868;DHT22;9563;49.240;9.088;2023-07-09T16:33:07;33.80;50.30
18868;DHT22;9563;49.240;9.088;2023-07-09T16:35:34;33.70;50.80
18868;DHT22;9563;49.240;9.088;2023-07-09T16:38:01;33.60;49.60
18868;DHT22;9563;49.240;9.088;2023-07-09T16:40:31;33.60;50.30
18868;DHT22;9563;49.240;9.088;2023-07-09T16:42:59;33.40;51.00
18868;DHT22;9563;49.240;9.088;2023-07-09T16:45:27;33.30;51.90
18868;DHT22;9563;49.240;9.088;2023-07-09T16:47:54;33.20;52.10
18868;DHT22;9563;49.240;9.088;2023-07-09T16:50:23;33.00;53.90
18868;DHT22;9563;49.240;9.088;2023-07-09T16:52:52;32.90;55.20
18868;DHT22;9563;49.240;9.088;2023-07-09T16:55:23;32.80;56.80
18868;DHT22;9563;49.240;9.088;2023-07-09T16:57:54;32.70;57.50
18868;DHT22;9563;49.240;9.088;2023-07-09T17:00:25;32.60;57.80
18868;DHT22;9563;49.240;9.088;2023-07-09T17:02:53;32.50;59.20
18868;DHT22;9563;49.240;9.088;2023-07-09T17:05:21;32.40;60.70
18868;DHT22;9563;49.240;9.088;2023-07-09T17:07:49;32.20;61.80
18868;DHT22;9563;49.240;9.088;2023-07-09T17:10:16;32.20;62.50
18868;DHT22;9563;49.240;9.088;2023-07-09T17:12:45;32.10;63.30
18868;DHT22;9563;49.240;9.088;2023-07-09T17:15:20;31.90;63.70
18868;DHT22;9563;49.240;9.088;2023-07-09T17:17:47;31.90;65.10
18868;DHT22;9563;49.240;9.088;2023-07-09T17:20:15;31.80;66.10
18868;DHT22;9563;49.240;9.088;2023-07-09T17:22:43;31.70;66.60
18868;DHT22;9563;49.240;9.088;2023-07-09T17:25:23;31.60;67.40
18868;DHT22;9563;49.240;9.088;2023-07-09T17:27:51;31.50;67.90
18868;DHT22;9563;49.240;9.088;2023-07-09T17:30:20;31.40;68.70
18868;DHT22;9563;49.240;9.088;2023-07-09T17:32:47;31.40;69.20
18868;DHT22;9563;49.240;9.088;2023-07-09T17:35:14;31.30;69.70
18868;DHT22;9563;49.240;9.088;2023-07-09T17:37:46;31.30;70.00
18868;DHT22;9563;49.240;9.088;2023-07-09T17:40:17;31.20;70.00
18868;DHT22;9563;49.240;9.088;2023-07-09T17:42:45;31.20;70.60
18868;DHT22;9563;49.240;9.088;2023-07-09T17:45:14;31.10;70.70
18868;DHT22;9563;49.240;9.088;2023-07-09T17:47:43;31.00;71.00
18868;DHT22;9563;49.240;9.088;2023-07-09T17:50:14;31.00;71.10
18868;DHT22;9563;49.240;9.088;2023-07-09T17:52:41;30.90;71.50
18868;DHT22;9563;49.240;9.088;2023-07-09T17:55:10;30.80;71.70
18868;DHT22;9563;49.240;9.088;2023-07-09T17:57:38;30.70;72.90
18868;DHT22;9563;49.240;9.088;2023-07-09T18:00:09;30.60;73.60
18868;DHT22;9563;49.240;9.088;2023-07-09T18:02:38;30.50;74.60
18868;DHT22;9563;49.240;9.088;2023-07-09T18:05:20;30.50;74.80
18868;DHT22;9563;49.240;9.088;2023-07-09T18:07:48;30.40;75.00
18868;DHT22;9563;49.240;9.088;2023-07-09T18:10:15;30.30;76.40
18868;DHT22;9563;49.240;9.088;2023-07-09T18:12:42;30.20;78.10
18868;DHT22;9563;49.240;9.088;2023-07-09T18:15:15;30.20;79.70
18868;DHT22;9563;49.240;9.088;2023-07-09T18:17:43;30.00;83.90
18868;DHT22;9563;49.240;9.088;2023-07-09T18:20:17;29.90;86.50
18868;DHT22;9563;49.240;9.088;2023-07-09T18:22:45;29.70;85.40
18868;DHT22;9563;49.240;9.088;2023-07-09T18:25:12;29.50;85.70
18868;DHT22;9563;49.240;9.088;2023-07-09T18:27:42;29.30;87.00
18868;DHT22;9563;49.240;9.088;2023-07-09T18:30:20;29.20;87.90
18868;DHT22;9563;49.240;9.088;2023-07-09T18:32:49;29.00;88.90
18868;DHT22;9563;49.240;9.088;2023-07-09T18:35:22;28.90;90.70
18868;DHT22;9563;49.240;9.088;2023-07-09T18:37:52;28.80;92.00
18868;DHT22;9563;49.240;9.088;2023-07-09T18:40:20;28.80;93.30
18868;DHT22;9563;49.240;9.088;2023-07-09T18:42:47;28.70;95.60
18868;DHT22;9563;49.240;9.088;2023-07-09T18:45:16;28.70;96.40
18868;DHT22;9563;49.240;9.088;2023-07-09T18:47:44;28.70;96.30
18868;DHT22;9563;49.240;9.088;2023-07-09T18:50:16;28.60;97.20
18868;DHT22;9563;49.240;9.088;2023-07-09T18:52:44;28.50;98.10
18868;DHT22;9563;49.240;9.088;2023-07-09T18:55:16;28.40;98.40
18868;DHT22;9563;49.240;9.088;2023-07-09T18:57:43;28.40;98.20
18868;DHT22;9563;49.240;9.088;2023-07-09T19:00:12;28.30;99.10
18868;DHT22;9563;49.240;9.088;2023-07-09T19:02:39;28.10;94.50
18868;DHT22;9563;49.240;9.088;2023-07-09T19:05:12;27.90;96.00
18868;DHT22;9563;49.240;9.088;2023-07-09T19:07:40;27.80;96.10
18868;DHT22;9563;49.240;9.088;2023-07-09T19:10:12;27.70;97.20
18868;DHT22;9563;49.240;9.088;2023-07-09T19:12:39;27.60;97.00
18868;DHT22;9563;49.240;9.088;2023-07-09T19:15:07;27.50;96.00
18868;DHT22;9563;49.240;9.088;2023-07-09T19:17:35;27.40;95.90
18868;DHT22;9563;49.240;9.088;2023-07-09T19:20:02;27.30;96.30
18868;DHT22;9563;49.240;9.088;2023-07-09T19:22:28;27.20;96.00
18868;DHT22;9563;49.240;9.088;2023-07-09T19:24:55;27.20;98.20
18868;DHT22;9563;49.240;9.088;2023-07-09T19:27:24;27.20;99.20
18868;DHT22;9563;49.240;9.088;2023-07-09T19:29:51;27.20;99.90
18868;DHT22;9563;49.240;9.088;2023-07-09T19:32:23;27.10;99.90
18868;DHT22;9563;49.240;9.088;2023-07-09T19:34:53;27.10;99.90
18868;DHT22;9563;49.240;9.088;2023-07-09T19:37:24;27.00;99.90
18868;DHT22;9563;49.240;9.088;2023-07-09T19:39:51;27.00;99.90
18868;DHT22;9563;49.240;9.088;2023-07-09T19:42:20;26.90;99.90
18868;DHT22;9563;49.240;9.088;2023-07-09T19:44:50;26.80;99.90
18868;DHT22;9563;49.240;9.088;2023-07-09T19:47:19;26.70;99.90
18868;DHT22;9563;49.240;9.088;2023-07-09T19:49:46;26.60;99.90
18868;DHT22;9563;49.240;9.088;2023-07-09T19:52:15;26.60;99.90
18868;DHT22;9563;49.240;9.088;2023-07-09T19:54:42;26.60;99.90
18868;DHT22;9563;49.240;9.088;2023-07-09T19:57:11;26.50;99.90
18868;DHT22;9563;49.240;9.088;2023-07-09T19:59:38;26.30;99.90
18868;DHT22;9563;49.240;9.088;2023-07-09T20:02:17;26.20;99.90